Time;durP1;ratioP1;P1;durP2;ratioP2;P2;SDS_P1;SDS_P2;PMS_P1;PMS_P2;Temp;Humidity;BMP_temperature;BMP_pressure;BME280_temperature;BME280_humidity;BME280_pressure;Samples;Min_cycle;Max_cycle;Signal;HPM_P1;HPM_P2
2021/04/02 00:02:00;;;;;;;1.30;0.90;;;;;;;20.21;30.41;96175.75;5059852;28;20092;-56
2021/04/02 00:04:26;;;;;;;1.00;1.00;;;;;;;20.20;30.06;96168.69;5069357;28;20048;-53
2021/04/02 00:06:52;;;;;;;1.20;1.00;;;;;;;20.20;30.07;96167.84;5055315;28;20057;-55
2021/04/02 00:09:18;;;;;;;2.22;1.13;;;;;;;20.18;30.34;96165.44;5055408;28;20048;-54
2021/04/02 00:11:43;;;;;;;1.10;1.10;;;;;;;20.18;30.11;96170.06;5064201;28;20937;-55
2021/04/02 00:14:09;;;;;;;1.10;0.90;;;;;;;20.18;30.46;96172.78;5067798;28;20496;-54
2021/04/02 00:16:35;;;;;;;0.90;0.90;;;;;;;20.16;30.17;96170.34;5067623;28;20056;-54
2021/04/02 00:19:01;;;;;;;1.63;1.20;;;;;;;20.15;30.30;96160.56;5062079;28;20057;-54
2021/04/02 00:21:27;;;;;;;1.58;1.48;;;;;;;20.13;30.11;96162.75;5064762;28;20082;-55
2021/04/02 00:23:52;;;;;;;1.73;1.02;;;;;;;20.14;30.20;96169.00;5063324;28;20055;-57
2021/04/02 00:26:19;;;;;;;1.30;1.20;;;;;;;20.12;30.35;96155.72;5058151;28;20070;-53
2021/04/02 00:28:46;;;;;;;1.20;1.10;;;;;;;20.11;30.36;96150.56;5063919;28;20412;-55
2021/04/02 00:31:12;;;;;;;1.27;1.00;;;;;;;20.11;30.42;96150.56;5067428;28;20446;-54
2021/04/02 00:33:38;;;;;;;1.48;1.38;;;;;;;20.09;30.12;96145.41;5068449;28;20047;-55
2021/04/02 00:36:04;;;;;;;1.42;0.98;;;;;;;20.09;30.31;96145.41;5055227;28;20444;-54
2021/04/02 00:38:30;;;;;;;1.65;1.25;;;;;;;20.07;30.49;96147.59;5063360;28;20059;-54
2021/04/02 00:40:58;;;;;;;1.38;1.00;;;;;;;20.05;30.37;96145.16;5064113;28;20075;-54
2021/04/02 00:43:41;;;;;;;1.02;0.98;;;;;;;20.03;30.56;96141.09;5065281;28;20454;-55
2021/04/02 00:46:07;;;;;;;1.10;1.10;;;;;;;20.03;30.35;96144.63;5062034;28;20083;-55
2021/04/02 00:48:34;;;;;;;1.10;1.00;;;;;;;20.03;30.23;96143.81;5068629;28;20135;-53
2021/04/02 00:51:04;;;;;;;1.80;1.00;;;;;;;20.02;30.33;96137.56;5062708;28;20143;-54
2021/04/02 00:53:31;;;;;;;0.95;0.85;;;;;;;20.01;30.44;96137.84;5066183;28;20504;-55
2021/04/02 00:55:58;;;;;;;1.50;1.40;;;;;;;20.01;30.50;96132.41;5065064;28;20056;-54
2021/04/02 00:58:28;;;;;;;1.27;1.20;;;;;;;19.99;30.36;96129.97;5068270;28;20496;-54
2021/04/02 01:00:54;;;;;;;1.38;1.27;;;;;;;19.98;30.35;96133.81;5059412;28;20532;-54
2021/04/02 01:03:21;;;;;;;1.38;1.27;;;;;;;19.97;30.14;96131.38;5067915;28;20133;-55
2021/04/02 01:05:48;;;;;;;2.90;1.27;;;;;;;19.96;30.26;96125.13;5064205;28;20545;-54
2021/04/02 01:08:16;;;;;;;2.13;1.10;;;;;;;19.96;30.43;96132.47;5063697;28;20052;-52
2021/04/02 01:10:42;;;;;;;1.67;1.10;;;;;;;19.95;30.35;96133.56;5066207;28;20079;-55
2021/04/02 01:13:09;;;;;;;1.13;0.95;;;;;;;19.94;30.42;96129.22;5063370;28;20060;-55
2021/04/02 01:15:37;;;;;;;1.67;1.08;;;;;;;19.93;30.38;96130.31;5064682;28;20491;-54
2021/04/02 01:18:08;;;;;;;2.03;1.13;;;;;;;19.93;30.06;96127.59;5059879;28;20494;-55
2021/04/02 01:20:34;;;;;;;1.27;1.17;;;;;;;19.90;30.42;96120.81;5065640;28;20385;-54
2021/04/02 01:23:04;;;;;;;2.40;1.35;;;;;;;19.90;30.16;96120.81;5059591;28;20126;-53
2021/04/02 01:25:56;;;;;;;1.40;0.90;;;;;;;19.89;30.15;96115.66;5067544;28;20057;-54
2021/04/02 01:28:47;;;;;;;1.13;1.13;;;;;;;19.88;30.28;96125.75;5065860;28;20131;-54
2021/04/02 01:31:13;;;;;;;2.30;1.25;;;;;;;19.86;30.00;96111.63;5063694;28;20048;-54
2021/04/02 01:33:39;;;;;;;1.20;1.10;;;;;;;19.86;30.15;96119.78;5063896;28;20117;-55
2021/04/02 01:36:05;;;;;;;1.90;1.30;;;;;;;19.84;30.08;96116.53;5053673;28;20048;-54
2021/04/02 01:38:33;;;;;;;1.27;1.20;;;;;;;19.83;30.38;96109.50;5065968;28;20060;-52
2021/04/02 01:41:01;;;;;;;1.20;1.10;;;;;;;19.82;30.08;96114.09;5066414;28;20373;-53
2021/04/02 01:43:45;;;;;;;1.50;1.40;;;;;;;19.82;30.00;96116.81;5065744;28;20130;-55
2021/04/02 01:46:11;;;;;;;1.20;1.10;;;;;;;19.81;30.51;96108.97;5056159;28;20053;-50
2021/04/02 01:48:39;;;;;;;1.50;1.33;;;;;;;19.80;30.31;96110.03;5080479;28;20101;-53
2021/04/02 01:51:05;;;;;;;1.27;1.17;;;;;;;19.79;30.06;96106.53;5064475;28;20578;-55
2021/04/02 01:53:37;;;;;;;0.80;0.80;;;;;;;19.78;30.13;96110.31;5049686;28;20052;-53
2021/04/02 01:56:04;;;;;;;1.42;1.33;;;;;;;19.78;30.21;96107.59;5069529;28;20056;-52
2021/04/02 01:58:30;;;;;;;3.05;1.13;;;;;;;19.77;30.15;96107.91;5065616;28;20136;-52
2021/04/02 02:00:57;;;;;;;0.90;0.90;;;;;;;19.76;30.07;96107.06;5060694;28;20580;-54
2021/04/02 02:03:23;;;;;;;1.60;1.10;;;;;;;19.76;30.15;96106.28;5066321;28;20432;-52
2021/04/02 02:05:48;;;;;;;1.52;1.30;;;;;;;19.75;30.22;96102.75;5056774;28;20099;-55
2021/04/02 02:08:15;;;;;;;1.27;1.17;;;;;;;19.73;30.10;96099.50;5060678;28;20467;-54
2021/04/02 02:10:40;;;;;;;2.15;1.52;;;;;;;19.73;30.31;96098.72;5057403;28;20059;-53
2021/04/02 02:13:06;;;;;;;1.42;1.33;;;;;;;19.73;30.43;96099.50;5066302;28;20052;-54
2021/04/02 02:15:35;;;;;;;1.23;1.13;;;;;;;19.71;30.20;96098.97;5063601;28;20430;-54
2021/04/02 02:18:01;;;;;;;1.30;1.00;;;;;;;19.70;30.40;96100.06;5062983;28;20123;-56
2021/04/02 02:20:29;;;;;;;1.52;1.40;;;;;;;19.69;30.38;96093.00;5063969;28;20676;-54
2021/04/02 02:22:55;;;;;;;1.40;1.30;;;;;;;19.68;30.43;96104.13;5063031;28;20060;-55
2021/04/02 02:25:21;;;;;;;1.15;1.15;;;;;;;19.68;30.35;96099.53;5065880;28;20055;-55
2021/04/02 02:27:47;;;;;;;1.33;0.98;;;;;;;19.68;30.13;96101.41;5060518;28;20910;-52
2021/04/02 02:30:17;;;;;;;1.85;1.17;;;;;;;19.67;30.11;96094.38;5067193;28;20076;-54
2021/04/02 02:32:43;;;;;;;2.22;1.05;;;;;;;19.65;30.56;96092.75;5063406;28;20419;-54
2021/04/02 02:35:09;;;;;;;2.22;1.27;;;;;;;19.65;30.36;96098.19;5058641;28;20044;-55
2021/04/02 02:37:36;;;;;;;1.75;1.25;;;;;;;19.64;30.23;96087.59;5059805;28;20385;-56
2021/04/02 02:40:11;;;;;;;1.67;1.58;;;;;;;19.62;30.32;96096.03;5064006;28;20052;-54
2021/04/02 02:42:37;;;;;;;1.85;1.38;;;;;;;19.62;30.25;96092.53;5061114;28;20054;-54
2021/04/02 02:45:05;;;;;;;1.27;1.23;;;;;;;19.61;30.21;96086.25;5060040;28;20052;-55
2021/04/02 02:47:31;;;;;;;1.25;1.25;;;;;;;19.61;30.18;96088.16;5056252;28;20132;-54
2021/04/02 02:49:57;;;;;;;2.10;1.40;;;;;;;19.62;30.15;96089.81;5062946;28;20060;-54
2021/04/02 02:52:23;;;;;;;1.70;1.10;;;;;;;19.60;30.53;96089.28;5060936;28;20143;-54
2021/04/02 02:54:49;;;;;;;1.63;1.45;;;;;;;19.59;30.41;96082.19;5058030;28;20053;-57
2021/04/02 02:57:15;;;;;;;1.48;1.30;;;;;;;19.58;30.24;96083.31;5055935;28;20569;-53
2021/04/02 02:59:41;;;;;;;1.30;1.30;;;;;;;19.57;30.54;96087.91;5061162;28;20127;-56
2021/04/02 03:02:07;;;;;;;1.85;1.27;;;;;;;19.57;30.32;96084.41;5077350;28;20048;-54
2021/04/02 03:04:33;;;;;;;1.75;1.25;;;;;;;19.56;30.41;96082.78;5061271;28;20057;-54
2021/04/02 03:06:58;;;;;;;1.33;1.23;;;;;;;19.56;30.52;96096.38;5054760;28;20052;-53
2021/04/02 03:09:24;;;;;;;1.48;1.38;;;;;;;19.54;30.50;96083.06;5061760;28;20762;-55
2021/04/02 03:11:50;;;;;;;1.60;1.50;;;;;;;19.54;30.34;96083.06;5047548;28;20473;-54
2021/04/02 03:14:17;;;;;;;1.20;1.20;;;;;;;19.52;30.34;96073.59;5064223;28;20122;-52
2021/04/02 03:16:46;;;;;;;1.65;1.55;;;;;;;19.53;30.25;96073.28;5068721;28;20579;-56
2021/04/02 03:19:13;;;;;;;1.70;1.60;;;;;;;19.51;30.41;96069.22;5066856;28;20040;-55
2021/04/02 03:21:40;;;;;;;1.55;1.23;;;;;;;19.51;30.27;96075.47;5049394;28;20159;-55
2021/04/02 03:24:06;;;;;;;1.17;1.10;;;;;;;19.50;30.44;96073.06;5065390;28;20087;-54
2021/04/02 03:26:31;;;;;;;1.20;1.10;;;;;;;19.49;30.34;96072.22;5049495;28;20040;-55
2021/04/02 03:28:57;;;;;;;1.25;1.02;;;;;;;19.50;30.51;96078.50;5045221;28;20059;-54
2021/04/02 03:31:23;;;;;;;1.20;1.20;;;;;;;19.48;30.22;96070.63;5066492;28;20059;-54
2021/04/02 03:33:50;;;;;;;1.45;1.35;;;;;;;19.47;30.40;96071.69;5063205;28;20389;-53
2021/04/02 03:36:17;;;;;;;1.20;1.10;;;;;;;19.48;30.29;96069.81;5062077;28;20083;-55
2021/04/02 03:38:46;;;;;;;1.25;1.13;;;;;;;19.47;30.47;96070.88;5065914;28;20052;-54
2021/04/02 03:41:25;;;;;;;1.42;1.00;;;;;;;19.45;30.56;96076.59;5065692;28;20504;-55
2021/04/02 03:43:50;;;;;;;1.98;1.30;;;;;;;19.44;30.78;96073.09;5060013;28;20452;-56
2021/04/02 03:46:17;;;;;;;1.60;1.50;;;;;;;19.44;30.61;96070.38;5061488;28;20396;-53
2021/04/02 03:48:42;;;;;;;1.45;1.35;;;;;;;19.43;30.56;96065.22;5068658;28;20649;-55
2021/04/02 03:51:09;;;;;;;1.27;1.10;;;;;;;19.42;30.60;96066.31;5047877;28;20097;-55
2021/04/02 03:53:41;;;;;;;1.20;1.20;;;;;;;19.41;30.63;96067.44;5051518;28;20524;-52
2021/04/02 03:56:09;;;;;;;1.75;1.25;;;;;;;19.40;30.36;96061.16;5059402;28;20055;-54
2021/04/02 03:58:34;;;;;;;1.02;1.02;;;;;;;19.40;30.43;96063.06;5082526;28;20079;-54
2021/04/02 04:01:16;;;;;;;3.00;1.58;;;;;;;19.38;30.33;96057.13;5078835;28;20516;-54
2021/04/02 04:03:43;;;;;;;1.05;1.05;;;;;;;19.38;30.37;96066.06;5062396;28;20158;-54
2021/04/02 04:06:10;;;;;;;1.38;1.27;;;;;;;19.37;30.63;96064.47;5067864;28;20041;-54
2021/04/02 04:08:36;;;;;;;1.50;1.42;;;;;;;19.36;30.28;96057.38;5065851;28;20041;-55
2021/04/02 04:11:02;;;;;;;1.05;1.05;;;;;;;19.36;30.77;96062.81;5066342;28;20137;-55
2021/04/02 04:13:28;;;;;;;1.48;1.20;;;;;;;19.36;30.51;96056.59;5063151;28;20454;-55
2021/04/02 04:15:54;;;;;;;1.55;1.08;;;;;;;19.35;30.54;96055.78;5065693;28;20048;-53
2021/04/02 04:18:20;;;;;;;1.60;1.50;;;;;;;19.34;30.56;96056.06;5059540;28;20536;-51
2021/04/02 04:20:46;;;;;;;1.10;1.10;;;;;;;19.33;30.51;96059.88;5068632;28;20053;-55
2021/04/02 04:23:13;;;;;;;1.42;1.30;;;;;;;19.34;30.51;96064.22;5067713;28;20053;-54
2021/04/02 04:25:39;;;;;;;1.90;1.25;;;;;;;19.32;30.66;96069.09;5067672;28;20050;-54
2021/04/02 04:28:04;;;;;;;1.23;1.13;;;;;;;19.31;30.82;96071.03;5067296;28;20612;-52
2021/04/02 04:30:30;;;;;;;1.15;1.15;;;;;;;19.30;30.41;96069.38;5066429;28;20056;-53
2021/04/02 04:32:56;;;;;;;2.17;1.80;;;;;;;19.31;30.32;96075.66;5083257;28;20178;-56
2021/04/02 04:35:22;;;;;;;2.75;1.10;;;;;;;19.29;31.01;96070.50;5041900;28;20052;-55
2021/04/02 04:37:48;;;;;;;2.15;1.02;;;;;;;19.28;30.79;96070.75;5065625;28;20528;-56
2021/04/02 04:40:16;;;;;;;1.40;1.30;;;;;;;19.28;30.59;96074.28;5047875;28;20052;-57
2021/04/02 04:42:43;;;;;;;4.38;2.28;;;;;;;19.27;30.94;96075.41;5061580;28;20093;-54
2021/04/02 04:45:10;;;;;;;1.40;1.27;;;;;;;19.27;30.98;96075.41;5065262;28;20044;-54
2021/04/02 04:47:36;;;;;;;2.35;1.00;;;;;;;19.27;30.91;96069.16;5050399;28;20106;-53
2021/04/02 04:50:03;;;;;;;2.55;1.42;;;;;;;19.25;30.82;96066.72;5048024;28;20044;-52
2021/04/02 04:52:30;;;;;;;1.25;1.15;;;;;;;19.26;31.39;96072.94;5066374;28;20086;-55
2021/04/02 04:54:56;;;;;;;1.48;1.20;;;;;;;19.24;31.12;96065.09;5064517;28;20539;-56
2021/04/02 04:57:21;;;;;;;1.83;1.45;;;;;;;19.23;31.59;96068.91;5055741;28;20080;-55
2021/04/02 04:59:49;;;;;;;1.55;1.45;;;;;;;19.24;31.36;96065.91;5044279;28;20064;-54
2021/04/02 05:02:15;;;;;;;1.38;1.27;;;;;;;19.23;31.34;96072.41;5067323;28;20135;-56
2021/04/02 05:04:40;;;;;;;1.10;1.10;;;;;;;19.23;31.74;96068.91;5048346;28;20059;-55
2021/04/02 05:07:06;;;;;;;1.42;1.30;;;;;;;19.22;31.68;96059.13;5049592;28;20358;-56
2021/04/02 05:09:32;;;;;;;1.55;1.45;;;;;;;19.21;31.35;96061.03;5067103;28;20416;-53
2021/04/02 05:11:58;;;;;;;1.35;1.25;;;;;;;19.20;31.64;96056.72;5044228;28;20052;-54
2021/04/02 05:14:24;;;;;;;2.00;1.10;;;;;;;19.21;31.53;96062.94;5064568;28;20067;-55
2021/04/02 05:16:50;;;;;;;1.38;1.35;;;;;;;19.20;31.32;96061.31;5049455;28;20480;-54
2021/04/02 05:19:17;;;;;;;1.60;1.33;;;;;;;19.19;31.69;96057.00;5063117;28;20078;-54
2021/04/02 05:21:43;;;;;;;4.25;1.63;;;;;;;19.18;31.91;96058.91;5059156;28;20059;-53
2021/04/02 05:24:09;;;;;;;1.63;1.40;;;;;;;19.19;31.58;96067.84;5059911;28;20052;-56
2021/04/02 05:26:35;;;;;;;1.45;1.10;;;;;;;19.17;32.02;96059.97;5061918;28;20045;-55
2021/04/02 05:29:01;;;;;;;1.80;1.20;;;;;;;19.18;31.86;96066.22;5065328;28;20063;-55
2021/04/02 05:31:27;;;;;;;1.40;1.30;;;;;;;19.19;31.33;96065.13;5061150;28;20048;-54
2021/04/02 05:33:54;;;;;;;1.60;1.42;;;;;;;19.18;31.63;96058.06;5062059;28;20064;-54
2021/04/02 05:36:20;;;;;;;3.72;1.20;;;;;;;19.17;31.64;96062.69;5058423;28;20052;-53
2021/04/02 05:38:46;;;;;;;1.90;1.50;;;;;;;19.17;31.73;96064.59;5063833;28;20070;-57
2021/04/02 05:41:13;;;;;;;1.48;1.38;;;;;;;19.18;31.59;96063.50;5064511;28;20087;-53
2021/04/02 05:43:42;;;;;;;3.53;1.50;;;;;;;19.16;31.62;96065.72;5065412;28;20267;-55
2021/04/02 05:46:08;;;;;;;4.10;1.30;;;;;;;19.16;31.60;96066.50;5063589;28;20064;-56
2021/04/02 05:48:34;;;;;;;4.68;1.40;;;;;;;19.16;31.86;96068.44;5065495;28;20052;-54
2021/04/02 05:51:00;;;;;;;2.42;1.48;;;;;;;19.16;31.76;96071.13;5064971;28;20071;-55
2021/04/02 05:53:26;;;;;;;4.82;1.45;;;;;;;19.15;31.93;96072.22;5065834;28;20135;-55
2021/04/02 05:55:52;;;;;;;2.78;1.67;;;;;;;19.14;31.96;96067.91;5065899;28;20048;-55
2021/04/02 05:58:18;;;;;;;4.00;1.65;;;;;;;19.15;32.22;96072.22;5047463;28;20052;-54
2021/04/02 06:00:43;;;;;;;4.88;1.80;;;;;;;19.15;32.03;96077.66;5051751;28;20115;-54
2021/04/02 06:03:09;;;;;;;1.88;1.60;;;;;;;19.16;32.05;96071.13;5043434;28;20649;-55
2021/04/02 06:05:35;;;;;;;3.00;1.50;;;;;;;19.15;31.83;96069.50;5045013;28;20050;-56
2021/04/02 06:08:00;;;;;;;2.30;1.30;;;;;;;19.14;31.89;96068.69;5043585;28;20049;-56
2021/04/02 06:10:26;;;;;;;4.25;1.58;;;;;;;19.14;32.09;96067.91;5044414;28;20476;-55
2021/04/02 06:12:52;;;;;;;3.13;1.58;;;;;;;19.14;31.71;96070.59;5045620;28;20057;-55
2021/04/02 06:15:19;;;;;;;3.50;1.65;;;;;;;19.15;31.50;96074.94;5045647;28;20048;-54
2021/04/02 06:18:06;;;;;;;2.80;1.40;;;;;;;19.12;31.52;96072.78;5046911;28;20057;-54
2021/04/02 06:20:39;;;;;;;2.90;1.40;;;;;;;19.12;31.60;96072.78;5045738;28;20048;-54
2021/04/02 06:23:18;;;;;;;3.13;1.50;;;;;;;19.12;31.69;96075.50;5045551;28;20049;-55
2021/04/02 06:25:53;;;;;;;2.65;1.52;;;;;;;19.12;31.71;96075.50;5046696;28;20049;-54
2021/04/02 06:28:34;;;;;;;2.95;1.50;;;;;;;19.11;31.77;96079.31;5045858;28;20423;-54
2021/04/02 06:31:00;;;;;;;1.60;1.45;;;;;;;19.11;32.00;96080.09;5061615;28;20040;-54
2021/04/02 06:33:52;;;;;;;2.72;1.50;;;;;;;19.09;31.77;96078.78;5065645;28;20051;-54
2021/04/02 06:36:20;;;;;;;2.15;1.70;;;;;;;19.10;31.69;96078.50;5062159;28;20075;-54
2021/04/02 06:38:47;;;;;;;4.10;2.00;;;;;;;19.10;31.44;96075.78;5066290;28;20131;-54
2021/04/02 06:41:13;;;;;;;2.00;1.70;;;;;;;19.10;31.28;96080.41;5066105;28;20149;-54
2021/04/02 06:43:47;;;;;;;2.60;2.10;;;;;;;19.09;31.42;96081.47;5065673;28;20507;-53
2021/04/02 06:46:14;;;;;;;1.85;1.60;;;;;;;19.09;31.34;96078.78;5066582;28;20050;-55
2021/04/02 06:48:40;;;;;;;1.58;1.27;;;;;;;19.08;31.35;96077.97;5065565;28;20139;-54
2021/04/02 06:51:16;;;;;;;2.38;1.67;;;;;;;19.08;31.23;96074.44;5068304;28;20366;-54
2021/04/02 06:53:46;;;;;;;2.97;1.55;;;;;;;19.09;31.57;96078.78;5069921;28;20052;-54
2021/04/02 06:56:13;;;;;;;2.33;1.60;;;;;;;19.07;31.42;96079.03;5070423;28;20052;-55
2021/04/02 06:58:39;;;;;;;1.98;1.52;;;;;;;19.09;31.25;96073.34;5069107;28;20573;-55
2021/04/02 07:01:05;;;;;;;2.95;1.50;;;;;;;19.09;31.61;96081.47;5069547;28;20048;-54
2021/04/02 07:03:31;;;;;;;2.20;1.50;;;;;;;19.09;31.55;96081.47;5069316;28;20055;-55
2021/04/02 07:05:58;;;;;;;2.80;1.45;;;;;;;19.08;31.35;96083.41;5068224;28;20446;-51
2021/04/02 07:08:23;;;;;;;7.80;1.75;;;;;;;19.08;31.39;96085.31;5069701;28;20047;-55
2021/04/02 07:10:49;;;;;;;1.55;1.42;;;;;;;19.09;31.31;96081.47;5050929;28;20053;-53
2021/04/02 07:13:14;;;;;;;1.67;1.40;;;;;;;19.10;31.08;96088.56;5069834;28;20059;-53
2021/04/02 07:15:40;;;;;;;1.90;1.35;;;;;;;19.09;31.23;96086.91;5051116;28;20071;-53
2021/04/02 07:18:07;;;;;;;1.63;1.30;;;;;;;19.08;31.38;96083.41;5069392;28;20635;-52
2021/04/02 07:20:33;;;;;;;2.35;1.70;;;;;;;19.09;31.25;96084.19;5069139;28;20474;-53
2021/04/02 07:22:59;;;;;;;2.53;1.27;;;;;;;19.08;31.36;96082.59;5069241;28;20114;-53
2021/04/02 07:25:25;;;;;;;1.50;1.40;;;;;;;19.08;31.45;96083.41;5069447;28;20505;-54
2021/04/02 07:27:51;;;;;;;2.80;1.42;;;;;;;19.07;31.12;96076.31;5067931;28;20619;-53
2021/04/02 07:30:17;;;;;;;1.38;1.27;;;;;;;19.08;31.53;96083.41;5067239;28;20048;-53
2021/04/02 07:32:43;;;;;;;1.27;1.17;;;;;;;19.08;31.13;96074.44;5052082;28;20058;-53
2021/04/02 07:35:20;;;;;;;3.58;1.50;;;;;;;19.07;31.45;96079.03;5050699;28;20048;-53
2021/04/02 07:37:53;;;;;;;2.35;1.63;;;;;;;19.06;31.08;96073.91;5069033;28;20056;-52
2021/04/02 07:40:24;;;;;;;1.67;1.58;;;;;;;19.06;31.14;96082.06;5068818;28;20507;-53
2021/04/02 07:42:57;;;;;;;1.85;1.48;;;;;;;19.06;31.25;96079.34;5068985;28;20450;-54
2021/04/02 07:45:25;;;;;;;2.15;1.25;;;;;;;19.06;31.17;96087.50;5068047;28;20139;-52
2021/04/02 07:47:52;;;;;;;1.70;1.40;;;;;;;19.05;31.38;96083.94;5068107;28;20051;-54
2021/04/02 07:50:32;;;;;;;1.90;1.25;;;;;;;19.04;31.42;96080.41;5068610;28;20067;-54
2021/04/02 07:52:58;;;;;;;2.58;1.58;;;;;;;19.06;31.51;96084.78;5066762;28;20144;-53
2021/04/02 07:55:23;;;;;;;2.08;1.67;;;;;;;19.06;31.38;96087.50;5068058;28;20128;-56
2021/04/02 07:57:50;;;;;;;2.15;1.20;;;;;;;19.07;31.62;96089.09;5050249;28;20520;-55
2021/04/02 08:00:16;;;;;;;2.55;2.00;;;;;;;19.06;31.48;96080.16;5069003;28;20053;-55
2021/04/02 08:02:44;;;;;;;1.42;1.33;;;;;;;19.05;31.37;96086.66;5067949;28;20052;-55
2021/04/02 08:05:16;;;;;;;1.67;1.30;;;;;;;19.06;31.60;96082.06;5066655;28;20045;-54
2021/04/02 08:07:46;;;;;;;1.30;1.10;;;;;;;19.06;31.58;96085.56;5068774;28;20063;-56
2021/04/02 08:10:14;;;;;;;2.03;1.20;;;;;;;19.06;31.35;96087.50;5068337;28;20046;-55
2021/04/02 08:12:40;;;;;;;1.73;1.20;;;;;;;19.06;31.24;96076.63;5066537;28;20044;-55
2021/04/02 08:15:13;;;;;;;1.98;1.50;;;;;;;19.06;31.48;96085.56;5067254;28;20363;-54
2021/04/02 08:17:39;;;;;;;2.33;1.55;;;;;;;19.06;31.74;96082.88;5068057;28;20051;-55
2021/04/02 08:20:09;;;;;;;1.38;1.27;;;;;;;19.07;31.54;96094.53;5067299;28;20056;-55
2021/04/02 08:22:35;;;;;;;1.45;1.30;;;;;;;19.07;31.52;96084.47;5067235;28;20200;-53
2021/04/02 08:25:04;;;;;;;1.95;1.42;;;;;;;19.07;31.62;96091.81;5067772;28;20135;-55
2021/04/02 08:27:31;;;;;;;2.30;1.40;;;;;;;19.08;31.59;96093.44;5066684;28;20079;-55
2021/04/02 08:30:05;;;;;;;1.58;1.40;;;;;;;19.09;31.50;96089.63;5067587;28;20411;-54
2021/04/02 08:32:35;;;;;;;1.70;1.60;;;;;;;19.10;31.39;96091.28;5067873;28;20059;-51
2021/04/02 08:35:01;;;;;;;2.30;1.13;;;;;;;19.11;31.39;96087.44;5067418;28;20059;-53
2021/04/02 08:37:29;;;;;;;1.52;1.42;;;;;;;19.11;31.71;96090.16;5067106;28;20040;-53
2021/04/02 08:39:59;;;;;;;2.13;1.30;;;;;;;19.10;31.52;96083.94;5067693;28;20055;-55
2021/04/02 08:42:28;;;;;;;1.38;1.10;;;;;;;19.12;31.47;96083.66;5067510;28;20040;-55
2021/04/02 08:44:53;;;;;;;1.20;1.20;;;;;;;19.13;31.61;96090.69;5067317;28;20056;-54
2021/04/02 08:47:19;;;;;;;2.15;1.70;;;;;;;19.13;31.65;96091.50;5067298;28;20044;-54
2021/04/02 08:49:57;;;;;;;2.08;1.77;;;;;;;19.15;31.35;96088.50;5068263;28;20484;-56
2021/04/02 08:52:23;;;;;;;1.17;1.05;;;;;;;19.14;31.44;96084.19;5067401;28;20106;-54
2021/04/02 08:54:58;;;;;;;1.35;1.25;;;;;;;19.16;31.67;96087.44;5066738;28;20074;-54
2021/04/02 08:57:25;;;;;;;1.60;1.50;;;;;;;19.16;31.49;96084.72;5067254;28;20048;-54
2021/04/02 08:59:52;;;;;;;1.42;1.33;;;;;;;19.18;31.80;96093.34;5066651;28;20066;-56
2021/04/02 09:02:18;;;;;;;1.52;1.30;;;;;;;19.19;31.46;96084.94;5066447;28;20535;-52
2021/04/02 09:04:43;;;;;;;1.25;1.20;;;;;;;19.20;31.47;96086.56;5067862;28;20122;-53
2021/04/02 09:07:10;;;;;;;1.60;1.50;;;;;;;19.21;31.30;96092.81;5065321;28;20049;-55
2021/04/02 09:09:41;;;;;;;1.38;1.25;;;;;;;19.22;31.41;96094.41;5066483;28;20085;-57
2021/04/02 09:12:08;;;;;;;2.05;1.40;;;;;;;19.24;31.59;96092.22;5065488;28;20582;-54
2021/04/02 09:14:33;;;;;;;1.48;1.02;;;;;;;19.26;31.39;96094.69;5066232;28;20051;-52
2021/04/02 09:16:59;;;;;;;1.85;1.08;;;;;;;19.26;31.53;96086.53;5066164;28;20056;-55
2021/04/02 09:19:25;;;;;;;1.45;1.20;;;;;;;19.28;31.63;96092.50;5066713;28;20048;-55
2021/04/02 09:21:52;;;;;;;1.60;1.50;;;;;;;19.29;31.30;96089.50;5065645;28;20052;-54
2021/04/02 09:24:17;;;;;;;1.58;1.45;;;;;;;19.30;31.32;96085.69;5066485;28;20543;-53
2021/04/02 09:26:43;;;;;;;1.95;1.42;;;;;;;19.31;31.67;96089.22;5067428;28;20048;-55
2021/04/02 09:29:09;;;;;;;2.30;1.80;;;;;;;19.32;31.55;96083.50;5066519;28;20044;-56
2021/04/02 09:31:36;;;;;;;1.42;1.13;;;;;;;19.33;31.33;96087.84;5066650;28;20056;-55
2021/04/02 09:34:06;;;;;;;1.77;1.40;;;;;;;19.34;31.27;96088.66;5066378;28;20638;-53
2021/04/02 09:36:40;;;;;;;1.83;1.13;;;;;;;19.35;31.56;96096.50;5066398;28;20048;-56
2021/04/02 09:39:17;;;;;;;2.88;1.30;;;;;;;19.35;31.41;96085.66;5067195;28;20358;-54
2021/04/02 09:41:59;;;;;;;1.85;1.55;;;;;;;19.36;31.32;96083.75;5066819;28;20074;-54
2021/04/02 09:44:39;;;;;;;1.40;1.30;;;;;;;19.37;31.63;96086.19;5066245;28;20052;-52
2021/04/02 09:47:08;;;;;;;2.15;1.50;;;;;;;19.38;31.30;96082.34;5066594;28;20485;-53
2021/04/02 09:49:35;;;;;;;1.58;1.48;;;;;;;19.39;31.47;96083.19;5066207;28;20859;-54
2021/04/02 09:52:01;;;;;;;2.55;1.38;;;;;;;19.39;31.27;96075.84;5065888;28;20062;-52
2021/04/02 09:54:27;;;;;;;1.25;1.15;;;;;;;19.41;31.74;96079.09;5065961;28;20060;-53
2021/04/02 09:56:54;;;;;;;2.00;1.65;;;;;;;19.42;31.61;96080.69;5065950;28;20051;-55
2021/04/02 09:59:20;;;;;;;1.50;1.40;;;;;;;19.44;31.38;96083.13;5065733;28;20040;-55
2021/04/02 10:01:46;;;;;;;2.17;1.67;;;;;;;19.46;31.54;96080.16;5066403;28;20082;-54
2021/04/02 10:04:12;;;;;;;3.78;1.30;;;;;;;19.47;31.39;96070.88;5067022;28;20048;-54
2021/04/02 10:06:38;;;;;;;1.40;1.30;;;;;;;19.47;31.39;96071.69;5065660;28;20074;-53
2021/04/02 10:09:05;;;;;;;1.33;1.10;;;;;;;19.49;31.50;96071.41;5065525;28;20500;-53
2021/04/02 10:11:31;;;;;;;1.40;1.30;;;;;;;19.50;31.62;96073.84;5065887;28;20045;-52
2021/04/02 10:13:56;;;;;;;1.25;1.15;;;;;;;19.52;31.32;96070.88;5065682;28;20416;-54
2021/04/02 10:16:22;;;;;;;1.77;1.35;;;;;;;19.53;31.53;96067.03;5065801;28;20044;-55
2021/04/02 10:18:50;;;;;;;2.55;1.70;;;;;;;19.54;31.57;96060.53;5066261;28;20064;-52
2021/04/02 10:21:16;;;;;;;1.27;1.27;;;;;;;19.51;31.28;96059.16;5067014;28;20071;-54
2021/04/02 10:23:42;;;;;;;1.42;1.33;;;;;;;19.56;31.30;96063.78;5065270;28;20846;-52
2021/04/02 10:26:08;;;;;;;1.50;1.40;;;;;;;19.58;31.40;96061.59;5064801;28;20070;-54
2021/04/02 10:28:33;;;;;;;1.80;1.70;;;;;;;19.58;31.29;96062.38;5065802;28;20683;-52
2021/04/02 10:30:59;;;;;;;1.73;1.63;;;;;;;19.60;31.47;96064.81;5065849;28;20102;-52
2021/04/02 10:33:25;;;;;;;1.30;1.20;;;;;;;19.61;31.36;96061.81;5065496;28;20092;-51
2021/04/02 10:35:50;;;;;;;1.38;1.20;;;;;;;19.61;31.47;96056.38;5066074;28;20123;-51
2021/04/02 10:38:16;;;;;;;1.88;1.35;;;;;;;19.63;31.38;96056.91;5066732;28;20396;-53
2021/04/02 10:40:42;;;;;;;2.42;1.17;;;;;;;19.64;31.57;96055.00;5065951;28;20044;-53
2021/04/02 10:43:08;;;;;;;1.38;1.27;;;;;;;19.67;31.34;96048.19;5064688;28;20053;-55
2021/04/02 10:45:33;;;;;;;1.38;1.30;;;;;;;19.67;31.68;96048.19;5065436;28;20182;-55
2021/04/02 10:47:59;;;;;;;1.85;1.40;;;;;;;19.68;31.63;96052.50;5064890;28;20048;-54
2021/04/02 10:50:25;;;;;;;1.52;1.42;;;;;;;19.71;31.38;96051.97;5065418;28;20048;-54
2021/04/02 10:52:51;;;;;;;2.72;1.20;;;;;;;19.72;31.30;96051.69;5065663;28;20083;-55
2021/04/02 10:55:17;;;;;;;3.38;1.40;;;;;;;19.73;31.71;96045.16;5066222;28;20080;-57
2021/04/02 10:57:43;;;;;;;1.40;1.40;;;;;;;19.76;31.48;96051.91;5065681;28;20052;-53
2021/04/02 11:00:10;;;;;;;2.60;1.38;;;;;;;19.77;31.25;96048.94;5063974;28;20101;-55
2021/04/02 11:02:35;;;;;;;1.90;1.60;;;;;;;19.78;31.20;96044.28;5065455;28;20056;-54
2021/04/02 11:05:01;;;;;;;1.80;1.70;;;;;;;19.80;31.41;96042.09;5065526;28;20040;-56
2021/04/02 11:07:26;;;;;;;1.50;1.40;;;;;;;19.82;31.40;96048.06;5065395;28;20033;-55
2021/04/02 11:09:52;;;;;;;1.63;1.38;;;;;;;19.83;31.43;96050.50;5066075;28;20044;-54
2021/04/02 11:12:18;;;;;;;1.73;1.63;;;;;;;19.84;31.28;96043.94;5065781;28;20056;-53
2021/04/02 11:14:43;;;;;;;1.98;1.88;;;;;;;19.87;31.39;96041.75;5066358;28;20187;-54
2021/04/02 11:17:09;;;;;;;2.30;2.10;;;;;;;19.88;31.54;96040.69;5065469;28;20572;-55
2021/04/02 11:19:34;;;;;;;1.63;1.40;;;;;;;19.89;31.46;96040.41;5065933;28;20044;-55
2021/04/02 11:22:00;;;;;;;1.30;1.30;;;;;;;19.90;31.20;96033.03;5063912;28;20283;-56
2021/04/02 11:24:26;;;;;;;2.47;1.20;;;;;;;19.93;31.56;96038.72;5065285;28;20076;-54
2021/04/02 11:26:51;;;;;;;1.50;1.40;;;;;;;19.93;31.17;96038.72;5065627;28;20075;-52
2021/04/02 11:29:17;;;;;;;1.52;1.42;;;;;;;19.95;31.17;96035.69;5065591;28;20055;-53
2021/04/02 11:31:43;;;;;;;2.17;1.42;;;;;;;19.97;31.16;96025.34;5065671;28;20048;-54
2021/04/02 11:34:08;;;;;;;1.50;1.48;;;;;;;19.98;31.40;96026.97;5065347;28;20129;-53
2021/04/02 11:36:34;;;;;;;2.05;1.58;;;;;;;19.99;31.24;96026.66;5065557;28;20055;-54